This is the latest recevied weather packets stored in our database for station/object W8AN. If no packets are shown the sender has not sent any weather packets the latest 10 day(s).
| Time | Temp. | Humidity | Pressure | Rain* | Wind** | Luminosity | Snow |
|---|---|---|---|---|---|---|---|
| 1778091570 | 13.89° C | 42% | 4266.9 hPa | 0 mm | - | 454 W/m² | - |
| 1778091268 | 14.44° C | 45% | 4267.2 hPa | 0 mm | - | 734 W/m² | - |
| 1778090964 | 13.89° C | 45% | 4267.1 hPa | 0 mm | - | 738 W/m² | - |
| 1778090661 | 13.89° C | 43% | 4267.1 hPa | 0 mm | - | 766 W/m² | - |
| 1778090358 | 13.89° C | 44% | 4267 hPa | 0 mm | - | 695 W/m² | - |
| 1778090054 | 13.89° C | 43% | 4267 hPa | 0 mm | - | 691 W/m² | - |
| 1778089751 | 13.33° C | 46% | 4267 hPa | 0 mm | - | 553 W/m² | - |
| 1778089449 | 12.78° C | 45% | 4267.2 hPa | 0 mm | - | 562 W/m² | - |
| 1778089146 | 13.33° C | 46% | 4267.3 hPa | 0 mm | - | 397 W/m² | - |
| 1778088842 | 13.33° C | 49% | 4267.1 hPa | 0 mm | - | 604 W/m² | - |
| 1778088540 | 12.78° C | 44% | 4267.3 hPa | 0 mm | - | 482 W/m² | - |
| 1778088236 | 12.78° C | 45% | 4267.5 hPa | 0 mm | - | 505 W/m² | - |
| 1778087934 | 13.33° C | 49% | 4267.4 hPa | 0 mm | - | 546 W/m² | - |
| 1778087631 | 12.78° C | 44% | 4267.4 hPa | 0 mm | - | 540 W/m² | - |
| 1778087329 | 12.78° C | 50% | 4267.4 hPa | 0 mm | - | 458 W/m² | - |
| 1778087024 | 12.78° C | 43% | 4267.5 hPa | 0 mm | - | 404 W/m² | - |
| 1778086724 | 12.78° C | 45% | 4267.7 hPa | 0 mm | - | 605 W/m² | - |
| 1778086421 | 13.33° C | 48% | 4267.7 hPa | 0 mm | - | 347 W/m² | - |
| 1778086117 | 12.78° C | 43% | 4267.8 hPa | 0 mm | - | 750 W/m² | - |
| 1778085814 | 12.78° C | 44% | 4267.7 hPa | 0 mm | - | 842 W/m² | - |
| 1778085512 | 13.33° C | 47% | 4267.7 hPa | 0 mm | - | 789 W/m² | - |
| 1778085206 | 12.78° C | 48% | 4267.7 hPa | 0 mm | - | 597 W/m² | - |
| 1778084902 | 12.78° C | 49% | 4267.6 hPa | 0 mm | - | 721 W/m² | - |
| 1778084600 | 12.78° C | 47% | 4267.4 hPa | 0 mm | - | 476 W/m² | - |
| 1778084297 | 12.78° C | 48% | 4267.5 hPa | 0 mm | - | 764 W/m² | - |
* Rain latest hour (hover to see other rain measurements)
** Current wind speed in m/s (hover to see current wind gust speed)